createdAt,value
2023-02-26T00:03:03.485Z,952.96387
2023-02-26T00:18:05.980Z,712.8396
2023-02-26T00:33:08.272Z,526.39014
2023-02-26T00:48:10.672Z,400.20715
2023-02-26T01:03:12.855Z,177.03282
2023-02-26T01:18:15.303Z,55.55817
2023-02-26T01:33:17.507Z,16.94995
2023-02-26T01:48:19.867Z,1.88333
2023-02-26T02:03:22.335Z,0
2023-02-26T02:18:24.620Z,0
2023-02-26T02:33:26.931Z,0
2023-02-26T02:48:29.105Z,0
2023-02-26T03:03:31.394Z,0
2023-02-26T03:18:33.868Z,0
2023-02-26T03:33:36.055Z,0
2023-02-26T03:48:38.436Z,0
2023-02-26T04:03:40.744Z,0
2023-02-26T04:18:43.123Z,0
2023-02-26T04:33:45.452Z,0
2023-02-26T04:48:47.808Z,0
2023-02-26T05:03:50.066Z,0
2023-02-26T05:18:52.284Z,0
2023-02-26T05:33:54.512Z,0
2023-02-26T05:48:56.770Z,0
2023-02-26T06:03:59.081Z,0
2023-02-26T06:19:01.352Z,0
2023-02-26T06:34:03.780Z,0
2023-02-26T06:49:06.203Z,0
2023-02-26T07:04:08.450Z,0
2023-02-26T07:19:10.990Z,0
2023-02-26T07:34:13.213Z,0
2023-02-26T07:49:15.521Z,0
2023-02-26T08:04:17.830Z,0
2023-02-26T08:19:20.193Z,0
2023-02-26T08:34:22.536Z,0
2023-02-26T08:49:24.789Z,0
2023-02-26T09:04:29.217Z,0
2023-02-26T09:19:33.025Z,0
2023-02-26T09:34:35.256Z,0
2023-02-26T09:49:37.580Z,0
2023-02-26T10:04:40.018Z,0
2023-02-26T10:19:42.264Z,0
2023-02-26T10:34:44.633Z,0
2023-02-26T10:49:46.838Z,0
2023-02-26T11:04:56.485Z,0.94166
2023-02-26T11:20:08.297Z,0.94166
2023-02-26T11:35:10.604Z,0.94166
2023-02-26T11:50:12.806Z,0.94166
2023-02-26T12:05:15.118Z,0.94166
2023-02-26T12:20:17.386Z,0.94166
2023-02-26T12:35:19.606Z,0.94166
2023-02-26T12:50:21.855Z,0.94166
2023-02-26T13:05:24.153Z,0.94166
2023-02-26T13:20:26.379Z,0.94166
2023-02-26T13:35:28.645Z,0.94166
2023-02-26T13:50:30.980Z,0.94166
2023-02-26T14:05:33.340Z,0.94166
2023-02-26T14:20:35.664Z,3.76666
2023-02-26T14:35:37.989Z,25.42493
2023-02-26T14:50:40.471Z,106.40802
2023-02-26T15:05:42.685Z,383.2572
2023-02-26T15:20:45.120Z,674.23138
2023-02-26T15:35:47.549Z,807.94763
2023-02-26T15:50:49.760Z,1179.90491
2023-02-26T16:05:52.083Z,1680.87012
2023-02-26T16:20:54.312Z,2753.42529
2023-02-26T16:35:56.535Z,3359.85693
2023-02-26T16:50:58.822Z,3563.25635
2023-02-26T17:06:01.109Z,4045.38818
2023-02-26T17:21:03.459Z,4372.14551
2023-02-26T17:36:06.041Z,5108.52686
2023-02-26T17:51:08.340Z,5427.75098
2023-02-26T18:06:10.541Z,6396.72314
2023-02-26T18:21:13.048Z,6285.60645
2023-02-26T18:36:15.312Z,8791.37402
2023-02-26T18:51:17.507Z,9418.52246
2023-02-26T19:06:19.810Z,12281.18066
2023-02-26T19:21:22.066Z,14461.13281
2023-02-26T19:36:24.321Z,10300.86133
2023-02-26T19:51:27.030Z,9122.83984
2023-02-26T20:06:29.523Z,7077.5459
2023-02-26T20:21:31.853Z,7648.19434
2023-02-26T20:36:34.214Z,8079.47656
2023-02-26T20:51:36.403Z,8089.83496
2023-02-26T21:06:38.651Z,8667.0752
2023-02-26T21:21:41.071Z,11944.06543
2023-02-26T21:36:43.336Z,9379.91406
2023-02-26T21:51:45.778Z,7379.82031
2023-02-26T22:06:48.067Z,7214.0874
2023-02-26T22:21:50.428Z,7619.94434
2023-02-26T22:36:52.687Z,8712.27441
2023-02-26T22:51:55.247Z,7175.479
2023-02-26T23:06:57.452Z,8117.14307
2023-02-26T23:21:59.663Z,14775.64844
2023-02-26T23:37:01.952Z,11846.13184
2023-02-26T23:52:04.438Z,9275.38965
